createdAt,value
2018-02-21T00:01:38.540Z,22.47
2018-02-21T00:05:41.088Z,24.57
2018-02-21T00:09:44.413Z,27.33
2018-02-21T00:13:46.942Z,29.43
2018-02-21T00:17:49.511Z,26.23
2018-02-21T00:21:52.027Z,24.50
2018-02-21T00:25:54.576Z,23.63
2018-02-21T00:29:57.141Z,23.30
2018-02-21T00:33:59.677Z,23.67
2018-02-21T00:38:02.277Z,25.27
2018-02-21T00:42:04.954Z,23.17
2018-02-21T00:46:07.485Z,23.13
2018-02-21T00:50:10.033Z,23.93
2018-02-21T00:54:12.665Z,22.77
2018-02-21T00:58:15.179Z,24.27
2018-02-21T01:02:17.719Z,24.40
2018-02-21T01:06:21.001Z,22.17
2018-02-21T01:10:23.554Z,22.10
2018-02-21T01:14:26.068Z,22.77
2018-02-21T01:18:28.644Z,22.60
2018-02-21T01:22:31.173Z,23.17
2018-02-21T01:26:33.709Z,23.07
2018-02-21T01:30:36.337Z,25.80
2018-02-21T01:34:39.638Z,24.43
2018-02-21T01:38:42.933Z,25.30
2018-02-21T01:42:46.242Z,23.73
2018-02-21T01:46:49.513Z,25.10
2018-02-21T01:50:52.730Z,23.60
2018-02-21T01:54:55.240Z,24.53
2018-02-21T01:58:58.554Z,24.80
2018-02-21T02:03:01.065Z,21.17
2018-02-21T02:07:03.600Z,23.70
2018-02-21T02:11:06.128Z,24.30
2018-02-21T02:15:08.672Z,26.57
2018-02-21T02:19:12.652Z,24.73
2018-02-21T02:23:15.191Z,27.03
2018-02-21T02:27:18.465Z,24.90
2018-02-21T02:31:21.009Z,25.33
2018-02-21T02:35:23.524Z,25.00
2018-02-21T02:39:37.808Z,24.33
2018-02-21T02:43:40.353Z,25.50
2018-02-21T02:47:42.894Z,24.63
2018-02-21T02:51:46.198Z,24.33
2018-02-21T02:55:49.487Z,24.23
2018-02-21T02:59:52.018Z,27.37
2018-02-21T03:03:54.653Z,24.40
2018-02-21T03:07:57.168Z,27.03
2018-02-21T03:12:00.473Z,24.07
2018-02-21T03:16:03.771Z,22.40
2018-02-21T03:20:07.047Z,21.03
2018-02-21T03:24:09.597Z,20.37
2018-02-21T03:28:12.121Z,20.67
2018-02-21T03:32:20.318Z,23.10
2018-02-21T03:36:22.824Z,22.70
2018-02-21T03:40:25.347Z,24.37
2018-02-21T03:44:28.640Z,24.47
2018-02-21T03:48:31.946Z,21.97
2018-02-21T03:52:35.229Z,21.90
2018-02-21T03:56:37.767Z,24.90
2018-02-21T04:00:40.284Z,22.50
2018-02-21T04:04:42.826Z,21.13
2018-02-21T04:08:45.329Z,22.30
2018-02-21T04:12:47.865Z,21.37
2018-02-21T04:16:50.372Z,21.40
2018-02-21T04:20:53.665Z,22.13
2018-02-21T04:24:56.944Z,24.17
2018-02-21T04:28:59.478Z,25.17
2018-02-21T04:33:02.007Z,24.13
2018-02-21T04:37:04.531Z,24.57
2018-02-21T04:41:07.837Z,23.90
2018-02-21T04:45:11.153Z,23.00
2018-02-21T04:49:13.670Z,23.23
2018-02-21T04:53:17.032Z,22.70
2018-02-21T04:57:31.069Z,24.50
2018-02-21T05:01:33.596Z,23.93
2018-02-21T05:05:36.099Z,24.77
2018-02-21T05:09:38.740Z,25.50
2018-02-21T05:13:42.021Z,24.93
2018-02-21T05:17:44.567Z,25.93
2018-02-21T05:21:47.080Z,24.77
2018-02-21T05:25:49.645Z,25.53
2018-02-21T05:29:52.149Z,25.27
2018-02-21T05:33:54.705Z,24.10
2018-02-21T05:37:57.250Z,24.43
2018-02-21T05:41:59.800Z,26.20
2018-02-21T05:46:02.375Z,25.20
2018-02-21T05:50:04.888Z,26.20
2018-02-21T05:54:07.418Z,26.10
2018-02-21T05:58:10.702Z,27.87
2018-02-21T06:02:13.242Z,27.40
2018-02-21T06:06:15.748Z,28.10
2018-02-21T06:10:18.286Z,28.43
2018-02-21T06:14:20.789Z,27.20
2018-02-21T06:18:23.432Z,25.23
2018-02-21T06:22:25.912Z,27.77
2018-02-21T06:26:28.452Z,27.50
2018-02-21T06:30:30.986Z,28.07
2018-02-21T06:34:33.525Z,27.93
2018-02-21T06:38:36.032Z,28.07
2018-02-21T06:42:38.564Z,30.77
2018-02-21T06:46:41.858Z,30.80
2018-02-21T06:50:45.222Z,28.90
2018-02-21T06:54:47.744Z,29.37
2018-02-21T06:58:50.263Z,29.27
2018-02-21T07:02:52.848Z,28.27
2018-02-21T07:06:55.379Z,30.17
2018-02-21T07:10:57.911Z,30.93
2018-02-21T07:15:00.452Z,30.33
2018-02-21T07:19:02.985Z,28.37
2018-02-21T07:23:05.528Z,26.67
2018-02-21T07:27:08.044Z,27.30
2018-02-21T07:31:11.341Z,26.07
2018-02-21T07:35:14.658Z,26.23
2018-02-21T07:39:17.973Z,23.70
2018-02-21T07:43:20.479Z,23.97
2018-02-21T07:47:23.235Z,25.07
2018-02-21T07:51:26.537Z,24.30
2018-02-21T07:55:29.843Z,26.83
2018-02-21T07:59:33.126Z,26.33
2018-02-21T08:03:35.669Z,25.27
2018-02-21T08:07:38.193Z,23.40
2018-02-21T08:11:40.723Z,23.93
2018-02-21T08:15:43.256Z,23.60
2018-02-21T08:19:45.780Z,23.87
2018-02-21T08:23:49.078Z,24.70
2018-02-21T08:27:52.388Z,25.37
2018-02-21T08:31:55.666Z,24.23
2018-02-21T08:35:58.221Z,25.07
2018-02-21T08:40:00.729Z,26.00
2018-02-21T08:44:03.268Z,25.40
2018-02-21T08:48:05.928Z,26.87
2018-02-21T08:52:10.317Z,26.97
2018-02-21T08:56:12.874Z,26.43
2018-02-21T09:00:15.416Z,26.77
2018-02-21T09:04:17.939Z,26.67
2018-02-21T09:08:20.488Z,26.53
2018-02-21T09:12:23.777Z,27.13
2018-02-21T09:16:26.321Z,26.67
2018-02-21T09:20:28.842Z,28.40
2018-02-21T09:24:38.749Z,28.00
2018-02-21T09:28:41.309Z,27.30
2018-02-21T09:32:55.925Z,27.70
2018-02-21T09:36:58.498Z,28.67
2018-02-21T09:41:01.024Z,27.50
2018-02-21T09:45:03.589Z,28.23
2018-02-21T09:53:15.997Z,28.90
2018-02-21T09:57:19.282Z,28.70
2018-02-21T10:01:28.014Z,29.27
2018-02-21T10:05:30.535Z,28.50
2018-02-21T10:09:36.073Z,27.10
2018-02-21T10:13:49.969Z,25.30
2018-02-21T10:17:52.944Z,24.67
2018-02-21T10:21:55.516Z,22.73
2018-02-21T10:25:58.804Z,22.63
2018-02-21T10:30:02.139Z,23.83
2018-02-21T10:34:04.690Z,19.90
2018-02-21T10:38:27.877Z,20.87
2018-02-21T10:42:30.446Z,18.70
2018-02-21T10:50:49.489Z,20.37
2018-02-21T10:54:52.037Z,21.27
2018-02-21T10:58:55.359Z,18.00
2018-02-21T11:02:58.676Z,18.07
2018-02-21T11:07:12.545Z,17.77
2018-02-21T11:11:23.120Z,19.23
2018-02-21T11:15:25.695Z,21.73
2018-02-21T11:19:28.951Z,20.73
2018-02-21T11:23:32.265Z,18.77
2018-02-21T11:27:35.648Z,20.10
2018-02-21T11:31:38.227Z,20.17
2018-02-21T11:39:49.702Z,18.97
2018-02-21T11:43:52.261Z,19.80
2018-02-21T11:47:54.969Z,18.80
2018-02-21T11:51:58.277Z,13.40
2018-02-21T11:56:01.549Z,16.67
2018-02-21T12:00:04.095Z,17.27
2018-02-21T12:04:07.759Z,18.43
2018-02-21T12:08:10.290Z,18.57
2018-02-21T12:12:12.815Z,15.70
2018-02-21T12:16:15.372Z,16.83
2018-02-21T12:20:17.883Z,17.23
2018-02-21T12:24:20.410Z,17.83
2018-02-21T12:28:23.761Z,16.93
2018-02-21T12:32:26.265Z,16.73
2018-02-21T12:36:29.282Z,17.33
2018-02-21T12:40:38.386Z,15.17
2018-02-21T12:44:40.892Z,17.33
2018-02-21T12:48:43.426Z,16.33
2018-02-21T12:52:45.944Z,15.83
2018-02-21T12:56:48.496Z,12.37
2018-02-21T13:00:51.168Z,12.50
2018-02-21T13:04:54.473Z,14.80
2018-02-21T13:08:57.737Z,14.97
2018-02-21T13:13:00.283Z,13.23
2018-02-21T13:17:02.797Z,14.93
2018-02-21T13:21:05.466Z,12.63
2018-02-21T13:25:07.978Z,12.23
2018-02-21T13:29:10.574Z,13.53
2018-02-21T13:33:13.119Z,13.53
2018-02-21T13:37:15.659Z,13.03
2018-02-21T13:41:18.202Z,13.20
2018-02-21T13:45:20.736Z,11.00
2018-02-21T13:49:24.048Z,11.47
2018-02-21T13:53:27.349Z,12.53
2018-02-21T13:57:30.628Z,10.90
2018-02-21T14:01:33.167Z,10.93
2018-02-21T14:05:35.675Z,10.77
2018-02-21T14:09:38.204Z,11.07
2018-02-21T14:13:40.730Z,11.47
2018-02-21T14:17:43.266Z,11.50
2018-02-21T14:21:45.814Z,11.27
2018-02-21T14:25:48.332Z,11.20
2018-02-21T14:29:51.000Z,12.10
2018-02-21T14:33:53.606Z,11.30
2018-02-21T14:37:56.131Z,11.07
2018-02-21T14:41:58.657Z,12.17
2018-02-21T14:46:01.212Z,11.10
2018-02-21T14:50:03.729Z,13.07
2018-02-21T14:54:06.271Z,11.00
2018-02-21T14:58:09.571Z,12.30
2018-02-21T15:02:12.177Z,13.00
2018-02-21T15:06:14.742Z,12.13
2018-02-21T15:10:18.031Z,12.30
2018-02-21T15:14:20.573Z,12.77
2018-02-21T15:18:23.090Z,13.03
2018-02-21T15:22:25.653Z,11.70
2018-02-21T16:30:26.910Z,13.80
2018-02-21T16:36:25.822Z,13.27
2018-02-21T16:40:29.162Z,14.53
2018-02-21T16:44:31.768Z,13.30
2018-02-21T16:48:36.101Z,13.97
2018-02-21T16:52:41.078Z,15.80
2018-02-21T16:56:44.442Z,14.37
2018-02-21T17:00:47.049Z,15.97
2018-02-21T17:04:49.647Z,16.20
2018-02-21T17:08:52.252Z,15.93
2018-02-21T17:12:56.566Z,14.60
2018-02-21T17:16:59.241Z,14.20
2018-02-21T17:21:01.846Z,15.27
2018-02-21T17:25:05.202Z,15.53
2018-02-21T17:29:07.760Z,15.03
2018-02-21T17:33:10.359Z,31.37
2018-02-21T17:37:12.928Z,16.50
2018-02-21T17:41:22.040Z,13.90
2018-02-21T17:45:24.626Z,14.70
2018-02-21T17:49:27.220Z,14.43
2018-02-21T17:53:29.808Z,13.57
2018-02-21T17:57:32.403Z,13.27
2018-02-21T18:01:35.008Z,14.57
2018-02-21T18:05:37.591Z,14.83
2018-02-21T18:09:40.196Z,23.57
2018-02-21T18:13:43.752Z,22.63
2018-02-21T18:17:46.366Z,20.93
2018-02-21T18:21:50.854Z,23.37
2018-02-21T18:25:53.494Z,20.43
2018-02-21T18:29:56.946Z,18.03
2018-02-21T18:33:59.508Z,18.27
2018-02-21T18:38:02.102Z,18.87
2018-02-21T18:42:04.683Z,17.93
2018-02-21T18:46:07.307Z,17.50
2018-02-21T18:50:09.877Z,18.10
2018-02-21T18:54:12.481Z,19.93
2018-02-21T18:58:15.068Z,18.87
2018-02-21T19:02:17.657Z,18.63
2018-02-21T19:06:20.232Z,17.67
2018-02-21T19:10:22.814Z,18.63
2018-02-21T19:14:25.434Z,18.60
2018-02-21T19:18:28.041Z,18.33
2018-02-21T19:22:30.615Z,18.47
2018-02-21T19:26:33.284Z,17.90
2018-02-21T19:30:35.847Z,19.13
2018-02-21T19:34:38.456Z,19.50
2018-02-21T19:38:41.058Z,19.93
2018-02-21T19:42:44.763Z,18.90
2018-02-21T19:46:47.360Z,19.90
2018-02-21T19:50:49.978Z,20.07
2018-02-21T19:54:53.304Z,20.10
2018-02-21T19:58:56.079Z,20.47
2018-02-21T20:02:58.645Z,19.33
2018-02-21T20:07:01.594Z,20.43
2018-02-21T20:11:04.171Z,20.20
2018-02-21T20:15:06.759Z,20.00
2018-02-21T20:19:09.326Z,19.80
2018-02-21T20:23:11.942Z,21.83
2018-02-21T20:27:14.566Z,19.50
2018-02-21T20:31:17.182Z,19.37
2018-02-21T20:35:20.517Z,19.73
2018-02-21T20:39:23.103Z,20.10
2018-02-21T20:43:25.669Z,20.33
2018-02-21T20:47:29.024Z,19.53
2018-02-21T20:51:31.602Z,19.27
2018-02-21T20:55:34.217Z,19.00
2018-02-21T20:59:36.818Z,18.67
2018-02-21T21:03:40.192Z,18.60
2018-02-21T21:07:42.764Z,18.27
2018-02-21T21:11:45.363Z,18.17
2018-02-21T21:15:47.960Z,17.40
2018-02-21T21:19:50.611Z,17.77
2018-02-21T21:23:53.214Z,18.60
2018-02-21T21:27:55.852Z,18.53
2018-02-21T21:31:59.199Z,19.37
2018-02-21T23:03:26.540Z,20.67
2018-02-21T23:07:29.894Z,21.17
2018-02-21T23:11:32.487Z,21.57
2018-02-21T23:15:35.123Z,19.73
2018-02-21T23:19:37.766Z,20.80
2018-02-21T23:23:40.364Z,21.90
2018-02-21T23:27:43.317Z,20.67
2018-02-21T23:31:46.024Z,21.33
2018-02-21T23:35:48.677Z,22.47
2018-02-21T23:39:52.045Z,21.40
2018-02-21T23:43:54.705Z,21.87
2018-02-21T23:47:57.269Z,21.43
2018-02-21T23:51:59.936Z,21.80
2018-02-21T23:56:03.332Z,21.80
